createdAt,value
2022-08-18T00:00:36.322Z,15.25
2022-08-18T00:07:38.184Z,23.25
2022-08-18T00:14:40.002Z,24.73
2022-08-18T00:21:41.990Z,19.85
2022-08-18T00:28:43.778Z,23.10
2022-08-18T00:35:45.564Z,24.02
2022-08-18T00:42:49.604Z,18.92
2022-08-18T00:49:52.770Z,14.75
2022-08-18T00:56:59.140Z,21.33
2022-08-18T01:04:05.363Z,23.63
2022-08-18T01:11:07.199Z,25.75
2022-08-18T01:18:32.102Z,30.65
2022-08-18T01:25:52.758Z,18.77
2022-08-18T01:32:54.619Z,19.77
2022-08-18T01:41:23.171Z,17.58
2022-08-18T01:47:18.836Z,18.02
2022-08-18T01:54:20.704Z,18.60
2022-08-18T02:01:24.955Z,15.30
2022-08-18T02:08:38.934Z,15.98
2022-08-18T02:15:46.173Z,15.85
2022-08-18T02:22:50.306Z,17.85
2022-08-18T02:29:52.242Z,18.75
2022-08-18T02:36:54.466Z,19.45
2022-08-18T02:43:56.808Z,16.95
2022-08-18T02:51:09.805Z,20.80
2022-08-18T02:58:13.494Z,21.52
2022-08-18T03:05:16.335Z,16.33
2022-08-18T03:12:18.296Z,23.42
2022-08-18T03:19:20.439Z,26.13
2022-08-18T03:26:23.246Z,25.88
2022-08-18T03:33:25.072Z,21.98
2022-08-18T03:40:27.060Z,25.70
2022-08-18T03:47:28.910Z,22.13
2022-08-18T03:54:32.621Z,30.83
2022-08-18T04:01:36.540Z,23.05
2022-08-18T04:08:38.344Z,30.15
2022-08-18T04:15:40.182Z,20.00
2022-08-18T04:22:42.391Z,22.27
2022-08-18T04:29:44.299Z,22.17
2022-08-18T04:36:46.752Z,22.33
2022-08-18T04:43:50.653Z,36.20
2022-08-18T04:50:52.429Z,27.50
2022-08-18T04:57:54.329Z,44.15
2022-08-18T05:04:56.314Z,31.70
2022-08-18T05:11:58.163Z,45.35
2022-08-18T05:19:04.363Z,35.65
2022-08-18T05:26:10.234Z,41.20
2022-08-18T05:33:12.162Z,41.00
2022-08-18T05:40:14.558Z,42.22
2022-08-18T05:47:16.655Z,37.35
2022-08-18T05:54:38.593Z,52.50
2022-08-18T06:01:42.492Z,36.90
2022-08-18T06:08:47.322Z,39.95
2022-08-18T06:16:01.080Z,26.40
2022-08-18T06:23:21.794Z,27.60
2022-08-18T06:30:27.686Z,21.45
2022-08-18T06:37:35.523Z,19.35
2022-08-18T06:44:47.106Z,14.63
2022-08-18T06:51:48.977Z,20.10
2022-08-18T06:58:53.513Z,17.73
2022-08-18T07:05:58.128Z,20.27
2022-08-18T07:13:07.404Z,19.40
2022-08-18T07:20:17.904Z,23.45
2022-08-18T07:27:21.212Z,14.80
2022-08-18T07:34:37.695Z,12.68
2022-08-18T07:41:39.722Z,16.38
2022-08-18T07:48:41.596Z,19.50
2022-08-18T07:55:47.513Z,12.45
2022-08-18T08:02:50.534Z,14.75
2022-08-18T08:10:19.347Z,15.23
2022-08-18T08:17:24.233Z,15.18
2022-08-18T08:24:30.853Z,11.80
2022-08-18T08:31:45.292Z,12.55
2022-08-18T08:38:47.082Z,12.25
2022-08-18T08:45:53.197Z,17.27
2022-08-18T08:53:18.348Z,12.00
2022-08-18T09:00:20.274Z,14.73
2022-08-18T09:07:40.482Z,14.10
2022-08-18T09:14:54.384Z,12.02
2022-08-18T09:22:01.137Z,13.27
2022-08-18T09:29:23.852Z,8.77
2022-08-18T09:36:34.637Z,10.73
2022-08-18T09:43:39.603Z,11.60
2022-08-18T09:50:54.288Z,10.45
2022-08-18T09:58:15.344Z,11.85
2022-08-18T10:05:19.565Z,10.70
2022-08-18T10:12:27.683Z,11.93
2022-08-18T10:19:39.958Z,8.98
2022-08-18T10:26:54.570Z,9.88
2022-08-18T10:34:20.046Z,9.73
2022-08-18T10:41:30.679Z,11.23
2022-08-18T10:48:34.897Z,12.25
2022-08-18T10:55:48.124Z,17.25
2022-08-18T11:03:01.959Z,11.00
2022-08-18T11:10:32.219Z,11.48
2022-08-18T11:17:55.381Z,9.27
2022-08-18T11:25:00.604Z,13.65
2022-08-18T11:32:05.307Z,9.20
2022-08-18T11:39:10.970Z,9.77
2022-08-18T11:46:12.834Z,12.30
2022-08-18T11:53:19.138Z,13.15
2022-08-18T12:00:43.199Z,9.48
2022-08-18T12:07:57.512Z,15.23
2022-08-18T12:15:11.823Z,16.50
2022-08-18T12:22:20.700Z,10.25
2022-08-18T12:29:24.537Z,13.00
2022-08-18T12:36:31.380Z,19.35
2022-08-18T12:43:34.089Z,6.95
2022-08-18T12:57:59.397Z,37.63
2022-08-18T13:05:01.957Z,15.52
2022-08-18T13:12:12.668Z,11.10
2022-08-18T13:19:16.671Z,12.15
2022-08-18T13:26:25.308Z,10.60
2022-08-18T13:33:35.121Z,14.10
2022-08-18T13:40:51.049Z,38.90
2022-08-18T13:47:52.904Z,12.52
2022-08-18T13:54:55.795Z,7.85
2022-08-18T14:01:58.359Z,10.57
2022-08-18T14:09:00.279Z,12.23
2022-08-18T14:16:02.896Z,9.15
2022-08-18T14:23:27.892Z,11.82
2022-08-18T14:30:35.927Z,11.02
2022-08-18T14:37:38.261Z,9.82
2022-08-18T14:44:40.085Z,11.63
2022-08-18T14:51:43.575Z,9.27
2022-08-18T14:58:45.430Z,18.55
2022-08-18T15:05:48.263Z,8.13
2022-08-18T15:12:50.240Z,11.80
2022-08-18T15:20:00.251Z,8.60
2022-08-18T15:27:10.359Z,16.02
2022-08-18T15:34:21.601Z,16.05
2022-08-18T15:41:35.155Z,12.75
2022-08-18T15:48:46.224Z,9.23
2022-08-18T15:55:50.105Z,11.77
2022-08-18T16:02:58.947Z,7.85
2022-08-18T16:10:02.593Z,15.25
2022-08-18T16:17:13.092Z,11.32
2022-08-18T16:24:19.818Z,14.00
2022-08-18T16:31:26.421Z,25.25
2022-08-18T16:38:30.205Z,17.70
2022-08-18T16:45:33.809Z,11.38
2022-08-18T16:52:35.940Z,24.88
2022-08-18T16:59:56.825Z,27.38
2022-08-18T17:06:58.736Z,17.83
2022-08-18T17:14:01.726Z,19.80
2022-08-18T17:21:04.948Z,14.85
2022-08-18T17:28:10.127Z,14.65
2022-08-18T17:35:14.365Z,19.15
2022-08-18T17:42:29.374Z,14.30
2022-08-18T17:50:27.329Z,14.05
2022-08-18T17:57:28.319Z,16.63
2022-08-18T18:04:31.148Z,25.90
2022-08-18T18:11:35.491Z,16.45
2022-08-18T18:18:42.155Z,21.77
2022-08-18T18:25:44.441Z,18.63
2022-08-18T18:32:59.590Z,35.38
2022-08-18T18:40:03.228Z,42.00
2022-08-18T18:47:17.513Z,30.42
2022-08-18T18:54:22.511Z,32.75
2022-08-18T19:01:45.511Z,35.75
2022-08-18T19:08:56.386Z,34.83
2022-08-18T19:16:00.793Z,28.23
2022-08-18T19:23:05.683Z,26.38
2022-08-18T19:30:09.185Z,26.77
2022-08-18T19:37:13.716Z,23.45
2022-08-18T19:44:31.896Z,17.60
2022-08-18T19:51:35.087Z,21.45
2022-08-18T19:59:12.949Z,20.95
2022-08-18T20:06:33.756Z,15.85
2022-08-18T20:13:43.339Z,14.00
2022-08-18T20:21:06.749Z,14.48
2022-08-18T20:28:11.963Z,15.13
2022-08-18T20:35:18.791Z,17.60
2022-08-18T20:42:21.912Z,13.93
2022-08-18T20:49:37.207Z,17.92
2022-08-18T20:56:43.807Z,16.10
2022-08-18T21:03:48.011Z,19.58
2022-08-18T21:10:51.457Z,18.67
2022-08-18T21:18:04.112Z,20.30
2022-08-18T21:25:10.785Z,22.92
2022-08-18T21:32:17.298Z,14.77
2022-08-18T21:39:20.271Z,16.88
2022-08-18T21:46:24.491Z,20.45
2022-08-18T21:53:28.152Z,17.63
2022-08-18T22:00:32.385Z,23.02
2022-08-18T22:07:35.637Z,14.95
2022-08-18T22:14:54.994Z,23.70
2022-08-18T22:22:02.298Z,22.55
2022-08-18T22:29:13.573Z,21.02
2022-08-18T22:36:18.638Z,18.13
2022-08-18T22:43:20.507Z,25.70
2022-08-18T22:50:22.350Z,24.40
2022-08-18T22:57:24.508Z,17.25
2022-08-18T23:04:26.527Z,20.90
2022-08-18T23:11:31.740Z,21.65
2022-08-18T23:18:33.753Z,15.32
2022-08-18T23:25:36.227Z,17.50
2022-08-18T23:32:38.166Z,26.30
2022-08-18T23:39:40.133Z,27.27
2022-08-18T23:46:45.665Z,25.88
2022-08-18T23:53:47.572Z,28.42
